ADDS METAR Data INFO
IDs: Format: Raw Decoded Include TAF

Data at: 1016 UTC 14 Dec 2017

KTBR 140955Z AUTO 23005KT 10SM CLR 06/M02 A2990 RMK AO2 T00571016
KTBR 140935Z AUTO 24005KT 10SM CLR 06/M02 A2991 RMK AO2 T00601019
KTBR 140915Z AUTO 25006KT 10SM CLR 06/M02 A2991 RMK AO2 T00601021
KTBR 140855Z AUTO 25005KT 10SM CLR 06/M03 A2992 RMK AO2 T00601026
KTBR 140835Z AUTO 25007KT 10SM CLR 06/M03 A2992 RMK AO2 T00611032
KTBR 140815Z AUTO 25007KT 10SM CLR 06/M04 A2992 RMK AO2 T00641038
KTBR 140755Z AUTO 25007KT 10SM CLR 07/M04 A2992 RMK AO2 T00651042
KTBR 140735Z AUTO 25007KT 10SM CLR 07/M05 A2993 RMK AO2 T00661046
KTBR 140715Z AUTO 25008KT 10SM CLR 07/M05 A2992 RMK AO2 T00661051
KTBR 140655Z AUTO 25007KT 10SM CLR 07/M06 A2992 RMK AO2 T00681060
KTBR 140635Z AUTO 25007KT 10SM CLR 07/M06 A2991 RMK AO2 T00681064
KTBR 140615Z AUTO 25007KT 10SM CLR 07/M06 A2991 RMK AO2 T00661062
KTBR 140555Z AUTO 24006KT 10SM CLR 07/M06 A2991 RMK AO2 T00651065 10069 20042 401150006
KTBR 140535Z AUTO 24004KT 10SM CLR 06/M07 A2990 RMK AO2 T00641067
KTBR 140515Z AUTO 23006KT 10SM CLR 07/M07 A2990 RMK AO2 T00651066
KTBR 140455Z AUTO 23005KT 10SM CLR 07/M07 A2991 RMK AO2 T00661067
KTBR 140435Z AUTO 23006KT 10SM CLR 07/M06 A2991 RMK AO2 T00651065
KTBR 140415Z AUTO 22006KT 10SM CLR 06/M06 A2991 RMK AO2 T00641063
KTBR 140355Z AUTO 22004KT 10SM CLR 07/M06 A2992 RMK AO2 T00651063
KTBR 140335Z AUTO 24005KT 10SM CLR 07/M07 A2992 RMK AO2 T00691067
KTBR 140315Z AUTO 23005KT 10SM CLR 07/M06 A2993 RMK AO2 T00661064
KTBR 140255Z AUTO 23006KT 10SM CLR 07/M06 A2992 RMK AO2 T00681063
KTBR 140235Z AUTO 22005KT 10SM CLR 07/M06 A2992 RMK AO2 T00671058
KTBR 140215Z AUTO 22004KT 10SM CLR 07/M05 A2993 RMK AO2 T00651055
KTBR 140155Z AUTO 21005KT 10SM CLR 07/M06 A2992 RMK AO2 T00671057
KTBR 140135Z AUTO 20006KT 10SM CLR 07/M05 A2992 RMK AO2 T00661053
KTBR 140115Z AUTO 21004KT 10SM CLR 06/M05 A2995 RMK AO2 T00631051
KTBR 140055Z AUTO 21004KT 10SM CLR 06/M04 A2995 RMK AO2 T00571042
KTBR 140035Z AUTO 00000KT 10SM CLR 06/M04 A2996 RMK AO2 T00581039
KTBR 140015Z AUTO 20003KT 10SM CLR 05/M02 A2995 RMK AO2 T00461022
KTBR 132355Z AUTO 20003KT 10SM CLR 04/M02 A2995 RMK AO2 T00421023 10115 20042
KTBR 132335Z AUTO 19003KT 10SM CLR 05/M02 A2995 RMK AO2 T00491019
KTBR 132315Z AUTO 17003KT 10SM CLR 06/M04 A2995 RMK AO2 T00551040
KTBR 132255Z AUTO 20003KT 10SM CLR 09/M07 A2996 RMK AO2 T00861074
KTBR 132235Z AUTO 22004KT 10SM CLR 09/M08 A2997 RMK AO2 T00891079
KTBR 132215Z AUTO 22003KT 10SM CLR 10/M08 A2997 RMK AO2 T00951078
KTBR 132155Z AUTO 22003KT 10SM CLR 11/M09 A2996 RMK AO2 T01051090
KTBR 132135Z AUTO 23004KT 10SM CLR 11/M09 A2997 RMK AO2 T01101095
KTBR 132115Z AUTO 25008KT 10SM CLR 11/M10 A2996 RMK AO2 T01121100
KTBR 132055Z AUTO 24003KT 10SM CLR 11/M10 A2997 RMK AO2 T01121101
KTBR 132035Z AUTO 24004KT 10SM CLR 11/M10 A2997 RMK AO2 T01131105
KTBR 132015Z AUTO 24007KT 10SM CLR 11/M11 A2997 RMK AO2 T01131111
KTBR 131955Z AUTO 24004KT 10SM CLR 11/M12 A2998 RMK AO2 T01081124
KTBR 131935Z AUTO 24008KT 10SM CLR 11/M12 A2999 RMK AO2 T01081119
KTBR 131915Z AUTO 24005KT 10SM CLR 11/M12 A3000 RMK AO2 T01061120
KTBR 131855Z AUTO 28005KT 10SM CLR 10/M12 A3001 RMK AO2 T01031121
KTBR 131835Z AUTO 24007KT 10SM CLR 10/M12 A3002 RMK AO2 T01001122
KTBR 131815Z AUTO 26008KT 10SM CLR 10/M12 A3003 RMK AO2 T01001122
KTBR 131755Z AUTO 26007KT 10SM CLR 09/M13 A3004 RMK AO2 T00941129 10094 20006
KTBR 131735Z AUTO 28005KT 10SM CLR 09/M13 A3004 RMK AO2 T00861133
KTBR 131715Z AUTO 00000KT 10SM CLR 08/M14 A3005 RMK AO2 T00811140
KTBR 131655Z AUTO 28004KT 10SM CLR 08/M13 A3007 RMK AO2 T00791134
KTBR 131635Z AUTO 29006KT 10SM CLR 08/M13 A3008 RMK AO2 T00751132
KTBR 131615Z AUTO 00000KT 10SM CLR 07/M13 A3009 RMK AO2 T00651135
KTBR 131555Z AUTO 29004KT 10SM CLR 06/M13 A3010 RMK AO2 T00641128
KTBR 131535Z AUTO 27003KT 10SM CLR 06/M13 A3011 RMK AO2 T00561131
KTBR 131515Z AUTO 32005KT 10SM CLR 05/M13 A3011 RMK AO2 T00541128
KTBR 131455Z AUTO 32004KT 10SM CLR 05/M13 A3010 RMK AO2 T00461130
KTBR 131435Z AUTO 31006KT 10SM CLR 04/M13 A3010 RMK AO2 T00411129
KTBR 131415Z AUTO 31007KT 10SM CLR 04/M12 A3010 RMK AO2 T00381123
KTBR 131355Z AUTO 31007KT 10SM CLR 03/M12 A3009 RMK AO2 T00311120
KTBR 131335Z AUTO 32008KT 10SM SCT002 03/M11 A3009 RMK AO2 T00271111
KTBR 131315Z AUTO 32005KT 10SM CLR 02/M11 A3008 RMK AO2 T00221109
KTBR 131255Z AUTO 29004KT 10SM CLR 02/M11 A3007 RMK AO2 T00151106
KTBR 131235Z AUTO 32004KT 10SM CLR 01/M10 A3006 RMK AO2 T00061099
KTBR 131215Z AUTO 33006KT 10SM CLR 01/M11 A3005 RMK AO2 T00141109
KTBR 131155Z AUTO 33007KT 10SM CLR 01/M10 A3005 RMK AO2 T00121103 10050 20008
KTBR 131135Z AUTO 31005KT 10SM CLR 01/M10 A3004 RMK AO2 T00101096
KTBR 131115Z AUTO 31007KT 10SM CLR 02/M10 A3003 RMK AO2 T00161100
KTBR 131055Z AUTO 31006KT 10SM CLR 02/M09 A3002 RMK AO2 T00181095
KTBR 131035Z AUTO 31008KT 270V330 10SM CLR 02/M09 A3002 RMK AO2 T00211090
KTBR 131015Z AUTO 30007KT 10SM CLR 02/M09 A3001 RMK AO2 T00241086
KTBR 130955Z AUTO 30007KT 10SM CLR 03/M08 A3001 RMK AO2 T00251076
KTBR 130935Z AUTO 29008KT 10SM CLR 03/M07 A3000 RMK AO2 T00281067
KTBR 130915Z AUTO 30007KT 10SM CLR 03/M05 A3000 RMK AO2 T00281055
KTBR 130855Z AUTO 29005KT 10SM CLR 03/M06 A3000 RMK AO2 T00321058
KTBR 130835Z AUTO 29007KT 10SM CLR 03/M06 A2998 RMK AO2 T00341060
KTBR 130815Z AUTO 31007KT 10SM CLR 04/M05 A2998 RMK AO2 T00361051
KTBR 130755Z AUTO 32008KT 10SM CLR 04/M04 A2998 RMK AO2 T00381041
KTBR 130735Z AUTO 30005KT 10SM CLR 04/M03 A2997 RMK AO2 T00371032
KTBR 130715Z AUTO 31008KT 10SM CLR 04/M03 A2996 RMK AO2 T00431029
KTBR 130655Z AUTO 32006KT 10SM CLR 04/M02 A2996 RMK AO2 T00371024
KTBR 130635Z AUTO 29005KT 10SM CLR 04/M02 A2995 RMK AO2 T00401023
KTBR 130615Z AUTO 30006KT 10SM CLR 05/M02 A2995 RMK AO2 T00471023
KTBR 130555Z AUTO 32006KT 10SM CLR 05/M02 A2994 RMK AO2 T00501025 10103 20050 401630050
KTBR 130535Z AUTO 30008KT 10SM CLR 06/M03 A2995 RMK AO2 T00581026
KTBR 130515Z AUTO 30008KT 10SM CLR 06/M03 A2995 RMK AO2 T00621027
KTBR 130455Z AUTO 30008KT 10SM CLR 06/M03 A2995 RMK AO2 T00641027
KTBR 130435Z AUTO 30009G14KT 10SM CLR 07/M03 A2994 RMK AO2 T00701028
KTBR 130415Z AUTO 30011G15KT 10SM CLR 07/M03 A2994 RMK AO2 T00701027
KTBR 130355Z AUTO 29009G15KT 10SM CLR 07/M03 A2994 RMK AO2 T00721026
KTBR 130335Z AUTO 29009KT 10SM CLR 07/M02 A2994 RMK AO2 T00741025
KTBR 130315Z AUTO 29008KT 10SM CLR 08/M03 A2993 RMK AO2 T00761026
KTBR 130255Z AUTO 30008G15KT 10SM CLR 08/M03 A2994 RMK AO2 T00791026
KTBR 130235Z AUTO 30011G17KT 10SM CLR 08/M03 A2994 RMK AO2 T00821026
KTBR 130215Z AUTO 30011G15KT 10SM CLR 08/M02 A2993 RMK AO2 T00831025
KTBR 130155Z AUTO 29009KT 10SM CLR 09/M03 A2992 RMK AO2 T00851026
KTBR 130135Z AUTO 30009KT 10SM CLR 09/M03 A2992 RMK AO2 T00871029
KTBR 130050Z AUTO 31011G18KT 10SM CLR 10/M03 A2991 RMK AO2 T00951030
KTBR 130035Z AUTO 30011G18KT 10SM CLR 10/M02 A2991 RMK AO2 T00961025
KTBR 130015Z AUTO 30014G18KT 10SM CLR 10/M02 A2990 RMK AO2 T00991018
KTBR 122355Z AUTO 30014KT 10SM CLR 10/M02 A2989 RMK AO2 T01011016 10163 20100
KTBR 122335Z AUTO 30011KT 10SM CLR 10/M01 A2988 RMK AO2 T01031015
KTBR 122315Z AUTO 29010KT 10SM CLR 11/M01 A2987 RMK AO2 T01061015
KTBR 122255Z AUTO 30008KT 10SM CLR 11/M02 A2986 RMK AO2 T01121017
KTBR 122235Z AUTO 31008G16KT 10SM CLR 12/M02 A2986 RMK AO2 T01151020